sensor_id;sensor_type;location;lat;lon;timestamp;temperature;humidity
15394;DHT22;7795;47.986;11.868;2023-05-10T00:01:49;17.90;72.10
15394;DHT22;7795;47.986;11.868;2023-05-10T00:04:15;17.80;72.00
15394;DHT22;7795;47.986;11.868;2023-05-10T00:06:41;17.80;72.20
15394;DHT22;7795;47.986;11.868;2023-05-10T00:09:08;17.80;72.30
15394;DHT22;7795;47.986;11.868;2023-05-10T00:11:34;17.80;72.50
15394;DHT22;7795;47.986;11.868;2023-05-10T00:14:00;17.80;72.60
15394;DHT22;7795;47.986;11.868;2023-05-10T00:16:28;17.80;72.70
15394;DHT22;7795;47.986;11.868;2023-05-10T00:18:54;17.80;72.90
15394;DHT22;7795;47.986;11.868;2023-05-10T00:21:26;17.80;72.70
15394;DHT22;7795;47.986;11.868;2023-05-10T00:23:53;17.80;72.70
15394;DHT22;7795;47.986;11.868;2023-05-10T00:26:21;17.80;72.80
15394;DHT22;7795;47.986;11.868;2023-05-10T00:28:47;17.80;73.10
15394;DHT22;7795;47.986;11.868;2023-05-10T00:31:13;17.80;73.10
15394;DHT22;7795;47.986;11.868;2023-05-10T00:33:40;17.80;73.10
15394;DHT22;7795;47.986;11.868;2023-05-10T00:36:12;17.70;73.20
15394;DHT22;7795;47.986;11.868;2023-05-10T00:38:38;17.70;73.10
15394;DHT22;7795;47.986;11.868;2023-05-10T00:41:04;17.70;73.10
15394;DHT22;7795;47.986;11.868;2023-05-10T00:43:31;17.70;73.10
15394;DHT22;7795;47.986;11.868;2023-05-10T00:45:57;17.70;73.30
15394;DHT22;7795;47.986;11.868;2023-05-10T00:48:23;17.70;73.30
15394;DHT22;7795;47.986;11.868;2023-05-10T00:50:49;17.70;73.40
15394;DHT22;7795;47.986;11.868;2023-05-10T00:53:15;17.70;73.50
15394;DHT22;7795;47.986;11.868;2023-05-10T00:55:42;17.70;73.60
15394;DHT22;7795;47.986;11.868;2023-05-10T00:58:08;17.60;73.60
15394;DHT22;7795;47.986;11.868;2023-05-10T01:00:35;17.60;73.70
15394;DHT22;7795;47.986;11.868;2023-05-10T01:03:03;17.60;73.90
15394;DHT22;7795;47.986;11.868;2023-05-10T01:05:28;17.60;73.80
15394;DHT22;7795;47.986;11.868;2023-05-10T01:07:54;17.60;73.90
15394;DHT22;7795;47.986;11.868;2023-05-10T01:10:21;17.60;74.00
15394;DHT22;7795;47.986;11.868;2023-05-10T01:12:47;17.60;74.00
15394;DHT22;7795;47.986;11.868;2023-05-10T01:15:14;17.60;74.10
15394;DHT22;7795;47.986;11.868;2023-05-10T01:17:59;17.60;74.40
15394;DHT22;7795;47.986;11.868;2023-05-10T01:20:29;17.60;74.60
15394;DHT22;7795;47.986;11.868;2023-05-10T01:23:36;17.60;74.50
15394;DHT22;7795;47.986;11.868;2023-05-10T01:29:24;17.60;75.20
15394;DHT22;7795;47.986;11.868;2023-05-10T01:32:21;17.50;75.10
15394;DHT22;7795;47.986;11.868;2023-05-10T01:34:56;17.50;74.50
15394;DHT22;7795;47.986;11.868;2023-05-10T01:37:31;17.50;74.70
15394;DHT22;7795;47.986;11.868;2023-05-10T01:40:02;17.50;74.80
15394;DHT22;7795;47.986;11.868;2023-05-10T01:42:40;17.40;74.70
15394;DHT22;7795;47.986;11.868;2023-05-10T01:45:31;17.40;74.80
15394;DHT22;7795;47.986;11.868;2023-05-10T01:48:06;17.40;74.90
15394;DHT22;7795;47.986;11.868;2023-05-10T01:51:03;17.40;75.30
15394;DHT22;7795;47.986;11.868;2023-05-10T01:53:31;17.40;74.90
15394;DHT22;7795;47.986;11.868;2023-05-10T01:55:59;17.30;75.90
15394;DHT22;7795;47.986;11.868;2023-05-10T01:58:28;17.30;75.20
15394;DHT22;7795;47.986;11.868;2023-05-10T02:00:55;17.30;75.30
15394;DHT22;7795;47.986;11.868;2023-05-10T02:03:26;17.30;75.30
15394;DHT22;7795;47.986;11.868;2023-05-10T02:05:53;17.30;75.50
15394;DHT22;7795;47.986;11.868;2023-05-10T02:08:21;17.30;75.40
15394;DHT22;7795;47.986;11.868;2023-05-10T02:10:50;17.30;75.50
15394;DHT22;7795;47.986;11.868;2023-05-10T02:13:17;17.30;75.60
15394;DHT22;7795;47.986;11.868;2023-05-10T02:15:44;17.30;75.70
15394;DHT22;7795;47.986;11.868;2023-05-10T02:18:12;17.30;75.80
15394;DHT22;7795;47.986;11.868;2023-05-10T02:20:41;17.30;75.60
15394;DHT22;7795;47.986;11.868;2023-05-10T02:23:11;17.30;75.80
15394;DHT22;7795;47.986;11.868;2023-05-10T02:25:37;17.30;75.60
15394;DHT22;7795;47.986;11.868;2023-05-10T02:28:06;17.30;75.70
15394;DHT22;7795;47.986;11.868;2023-05-10T02:30:33;17.30;75.90
15394;DHT22;7795;47.986;11.868;2023-05-10T02:33:00;17.30;76.10
15394;DHT22;7795;47.986;11.868;2023-05-10T02:35:41;17.30;76.00
15394;DHT22;7795;47.986;11.868;2023-05-10T02:38:39;17.30;75.90
15394;DHT22;7795;47.986;11.868;2023-05-10T02:41:08;17.30;75.80
15394;DHT22;7795;47.986;11.868;2023-05-10T02:43:35;17.30;76.10
15394;DHT22;7795;47.986;11.868;2023-05-10T02:46:02;17.30;76.00
15394;DHT22;7795;47.986;11.868;2023-05-10T02:48:28;17.30;76.10
15394;DHT22;7795;47.986;11.868;2023-05-10T02:50:59;17.30;76.10
15394;DHT22;7795;47.986;11.868;2023-05-10T02:53:43;17.30;76.40
15394;DHT22;7795;47.986;11.868;2023-05-10T02:56:13;17.30;76.20
15394;DHT22;7795;47.986;11.868;2023-05-10T02:58:40;17.30;76.20
15394;DHT22;7795;47.986;11.868;2023-05-10T03:01:06;17.30;76.10
15394;DHT22;7795;47.986;11.868;2023-05-10T03:03:33;17.30;76.20
15394;DHT22;7795;47.986;11.868;2023-05-10T03:06:00;17.30;76.20
15394;DHT22;7795;47.986;11.868;2023-05-10T03:08:26;17.30;76.40
15394;DHT22;7795;47.986;11.868;2023-05-10T03:11:05;17.30;76.20
15394;DHT22;7795;47.986;11.868;2023-05-10T03:13:53;17.30;76.60
15394;DHT22;7795;47.986;11.868;2023-05-10T03:16:26;17.30;76.50
15394;DHT22;7795;47.986;11.868;2023-05-10T03:19:14;17.30;76.60
15394;DHT22;7795;47.986;11.868;2023-05-10T03:21:53;17.30;76.50
15394;DHT22;7795;47.986;11.868;2023-05-10T03:24:47;17.30;76.50
15394;DHT22;7795;47.986;11.868;2023-05-10T03:27:14;17.30;76.40
15394;DHT22;7795;47.986;11.868;2023-05-10T03:29:40;17.30;76.40
15394;DHT22;7795;47.986;11.868;2023-05-10T03:32:07;17.30;76.40
15394;DHT22;7795;47.986;11.868;2023-05-10T03:34:33;17.30;76.50
15394;DHT22;7795;47.986;11.868;2023-05-10T03:37:00;17.30;76.50
15394;DHT22;7795;47.986;11.868;2023-05-10T03:39:26;17.20;76.40
15394;DHT22;7795;47.986;11.868;2023-05-10T03:41:52;17.20;76.30
15394;DHT22;7795;47.986;11.868;2023-05-10T03:44:18;17.20;76.50
15394;DHT22;7795;47.986;11.868;2023-05-10T03:46:44;17.20;76.40
15394;DHT22;7795;47.986;11.868;2023-05-10T03:49:10;17.20;76.40
15394;DHT22;7795;47.986;11.868;2023-05-10T03:51:36;17.20;76.50
15394;DHT22;7795;47.986;11.868;2023-05-10T03:54:03;17.10;76.50
15394;DHT22;7795;47.986;11.868;2023-05-10T03:56:29;17.10;76.60
15394;DHT22;7795;47.986;11.868;2023-05-10T03:58:55;17.10;76.60
15394;DHT22;7795;47.986;11.868;2023-05-10T04:01:21;17.10;76.80
15394;DHT22;7795;47.986;11.868;2023-05-10T04:03:47;17.10;76.90
15394;DHT22;7795;47.986;11.868;2023-05-10T04:06:12;17.10;76.90
15394;DHT22;7795;47.986;11.868;2023-05-10T04:08:38;17.00;76.90
15394;DHT22;7795;47.986;11.868;2023-05-10T04:11:06;17.00;77.00
15394;DHT22;7795;47.986;11.868;2023-05-10T04:13:57;17.00;77.20
15394;DHT22;7795;47.986;11.868;2023-05-10T04:16:23;17.00;77.80
15394;DHT22;7795;47.986;11.868;2023-05-10T04:18:49;17.00;77.10
15394;DHT22;7795;47.986;11.868;2023-05-10T04:21:15;17.00;78.10
15394;DHT22;7795;47.986;11.868;2023-05-10T04:23:40;17.00;77.40
15394;DHT22;7795;47.986;11.868;2023-05-10T04:26:08;17.00;77.30
15394;DHT22;7795;47.986;11.868;2023-05-10T04:28:36;17.00;77.30
15394;DHT22;7795;47.986;11.868;2023-05-10T04:31:03;17.00;77.20
15394;DHT22;7795;47.986;11.868;2023-05-10T04:33:29;17.00;77.30
15394;DHT22;7795;47.986;11.868;2023-05-10T04:35:55;17.00;77.30
15394;DHT22;7795;47.986;11.868;2023-05-10T04:38:21;16.90;77.20
15394;DHT22;7795;47.986;11.868;2023-05-10T04:40:46;16.90;77.40
15394;DHT22;7795;47.986;11.868;2023-05-10T04:43:14;16.90;77.50
15394;DHT22;7795;47.986;11.868;2023-05-10T04:45:56;16.90;77.80
15394;DHT22;7795;47.986;11.868;2023-05-10T04:48:36;16.90;77.80
15394;DHT22;7795;47.986;11.868;2023-05-10T04:51:01;16.90;77.60
15394;DHT22;7795;47.986;11.868;2023-05-10T04:53:29;16.90;77.80
15394;DHT22;7795;47.986;11.868;2023-05-10T04:55:55;16.90;77.70
15394;DHT22;7795;47.986;11.868;2023-05-10T04:58:22;16.90;77.80
15394;DHT22;7795;47.986;11.868;2023-05-10T05:00:52;16.90;77.80
15394;DHT22;7795;47.986;11.868;2023-05-10T05:03:18;16.90;77.80
15394;DHT22;7795;47.986;11.868;2023-05-10T05:05:44;16.90;77.90
15394;DHT22;7795;47.986;11.868;2023-05-10T05:08:10;16.90;78.10
15394;DHT22;7795;47.986;11.868;2023-05-10T05:10:36;16.90;78.10
15394;DHT22;7795;47.986;11.868;2023-05-10T05:13:02;16.90;78.10
15394;DHT22;7795;47.986;11.868;2023-05-10T05:15:30;16.90;78.20
15394;DHT22;7795;47.986;11.868;2023-05-10T05:17:56;16.90;78.20
15394;DHT22;7795;47.986;11.868;2023-05-10T05:20:22;16.90;78.10
15394;DHT22;7795;47.986;11.868;2023-05-10T05:22:48;16.90;78.20
15394;DHT22;7795;47.986;11.868;2023-05-10T05:25:14;16.90;78.20
15394;DHT22;7795;47.986;11.868;2023-05-10T05:27:41;16.90;78.10
15394;DHT22;7795;47.986;11.868;2023-05-10T05:30:08;16.80;78.10
15394;DHT22;7795;47.986;11.868;2023-05-10T05:32:36;16.80;78.20
15394;DHT22;7795;47.986;11.868;2023-05-10T05:35:04;16.80;78.40
15394;DHT22;7795;47.986;11.868;2023-05-10T05:37:51;16.80;78.20
15394;DHT22;7795;47.986;11.868;2023-05-10T05:40:17;16.80;78.10
15394;DHT22;7795;47.986;11.868;2023-05-10T05:42:55;16.80;78.20
15394;DHT22;7795;47.986;11.868;2023-05-10T05:45:21;16.70;78.10
15394;DHT22;7795;47.986;11.868;2023-05-10T05:47:48;16.70;78.20
15394;DHT22;7795;47.986;11.868;2023-05-10T05:50:14;16.70;78.40
15394;DHT22;7795;47.986;11.868;2023-05-10T05:52:40;16.60;78.50
15394;DHT22;7795;47.986;11.868;2023-05-10T05:55:06;16.60;78.50
15394;DHT22;7795;47.986;11.868;2023-05-10T05:57:32;16.60;78.50
15394;DHT22;7795;47.986;11.868;2023-05-10T05:59:58;16.60;78.50
15394;DHT22;7795;47.986;11.868;2023-05-10T06:02:25;16.60;78.70
15394;DHT22;7795;47.986;11.868;2023-05-10T06:04:52;16.60;78.70
15394;DHT22;7795;47.986;11.868;2023-05-10T06:07:18;16.60;78.80
15394;DHT22;7795;47.986;11.868;2023-05-10T06:09:43;16.50;78.80
15394;DHT22;7795;47.986;11.868;2023-05-10T06:12:09;16.50;78.90
15394;DHT22;7795;47.986;11.868;2023-05-10T06:14:35;16.50;79.00
15394;DHT22;7795;47.986;11.868;2023-05-10T06:17:01;16.50;79.10
15394;DHT22;7795;47.986;11.868;2023-05-10T06:19:29;16.50;79.90
15394;DHT22;7795;47.986;11.868;2023-05-10T06:21:56;16.50;79.20
15394;DHT22;7795;47.986;11.868;2023-05-10T06:24:22;16.40;79.30
15394;DHT22;7795;47.986;11.868;2023-05-10T06:26:48;16.40;79.40
15394;DHT22;7795;47.986;11.868;2023-05-10T06:29:15;16.40;79.60
15394;DHT22;7795;47.986;11.868;2023-05-10T06:31:41;16.40;79.20
15394;DHT22;7795;47.986;11.868;2023-05-10T06:34:07;16.30;79.10
15394;DHT22;7795;47.986;11.868;2023-05-10T06:36:33;16.30;79.00
15394;DHT22;7795;47.986;11.868;2023-05-10T06:39:00;16.20;79.00
15394;DHT22;7795;47.986;11.868;2023-05-10T06:41:26;16.20;79.00
15394;DHT22;7795;47.986;11.868;2023-05-10T06:43:52;16.20;79.00
15394;DHT22;7795;47.986;11.868;2023-05-10T06:46:18;16.20;79.00
15394;DHT22;7795;47.986;11.868;2023-05-10T06:48:44;16.10;78.90
15394;DHT22;7795;47.986;11.868;2023-05-10T06:51:10;16.10;78.90
15394;DHT22;7795;47.986;11.868;2023-05-10T06:53:36;16.10;78.90
15394;DHT22;7795;47.986;11.868;2023-05-10T06:56:03;16.10;78.90
15394;DHT22;7795;47.986;11.868;2023-05-10T06:58:29;16.10;79.00
15394;DHT22;7795;47.986;11.868;2023-05-10T07:01:01;16.10;79.10
15394;DHT22;7795;47.986;11.868;2023-05-10T07:03:27;16.00;79.50
15394;DHT22;7795;47.986;11.868;2023-05-10T07:05:53;16.00;79.40
15394;DHT22;7795;47.986;11.868;2023-05-10T07:08:19;16.00;79.50
15394;DHT22;7795;47.986;11.868;2023-05-10T07:10:45;16.10;79.70
15394;DHT22;7795;47.986;11.868;2023-05-10T07:13:12;16.10;79.80
15394;DHT22;7795;47.986;11.868;2023-05-10T07:15:37;16.20;80.10
15394;DHT22;7795;47.986;11.868;2023-05-10T07:18:04;16.20;80.10
15394;DHT22;7795;47.986;11.868;2023-05-10T07:20:31;16.20;80.10
15394;DHT22;7795;47.986;11.868;2023-05-10T07:22:57;16.30;80.20
15394;DHT22;7795;47.986;11.868;2023-05-10T07:25:23;16.30;80.40
15394;DHT22;7795;47.986;11.868;2023-05-10T07:27:49;16.40;80.50
15394;DHT22;7795;47.986;11.868;2023-05-10T07:30:17;16.40;80.60
15394;DHT22;7795;47.986;11.868;2023-05-10T07:32:44;16.50;80.80
15394;DHT22;7795;47.986;11.868;2023-05-10T07:35:10;16.60;80.80
15394;DHT22;7795;47.986;11.868;2023-05-10T07:37:36;16.60;80.60
15394;DHT22;7795;47.986;11.868;2023-05-10T07:40:02;16.70;80.50
15394;DHT22;7795;47.986;11.868;2023-05-10T07:42:27;16.80;80.40
15394;DHT22;7795;47.986;11.868;2023-05-10T07:44:53;16.90;80.20
15394;DHT22;7795;47.986;11.868;2023-05-10T07:47:21;17.00;80.00
15394;DHT22;7795;47.986;11.868;2023-05-10T07:49:47;17.00;80.00
15394;DHT22;7795;47.986;11.868;2023-05-10T07:52:13;17.10;80.00
15394;DHT22;7795;47.986;11.868;2023-05-10T07:54:39;17.20;79.80
15394;DHT22;7795;47.986;11.868;2023-05-10T07:57:04;17.20;79.70
15394;DHT22;7795;47.986;11.868;2023-05-10T07:59:30;17.30;79.80
15394;DHT22;7795;47.986;11.868;2023-05-10T08:01:56;17.30;79.50
15394;DHT22;7795;47.986;11.868;2023-05-10T08:04:23;17.40;79.20
15394;DHT22;7795;47.986;11.868;2023-05-10T08:06:49;17.60;79.10
15394;DHT22;7795;47.986;11.868;2023-05-10T08:09:16;17.60;78.90
15394;DHT22;7795;47.986;11.868;2023-05-10T08:11:41;17.60;78.70
15394;DHT22;7795;47.986;11.868;2023-05-10T08:14:07;17.70;78.40
15394;DHT22;7795;47.986;11.868;2023-05-10T08:16:33;17.80;78.20
15394;DHT22;7795;47.986;11.868;2023-05-10T08:18:59;17.90;78.30
15394;DHT22;7795;47.986;11.868;2023-05-10T08:21:27;17.90;78.20
15394;DHT22;7795;47.986;11.868;2023-05-10T08:23:52;18.00;78.10
15394;DHT22;7795;47.986;11.868;2023-05-10T08:26:18;18.10;77.80
15394;DHT22;7795;47.986;11.868;2023-05-10T08:28:44;18.10;77.30
15394;DHT22;7795;47.986;11.868;2023-05-10T08:31:10;18.20;77.20
15394;DHT22;7795;47.986;11.868;2023-05-10T08:33:35;18.20;77.00
15394;DHT22;7795;47.986;11.868;2023-05-10T08:36:01;18.20;76.70
15394;DHT22;7795;47.986;11.868;2023-05-10T08:38:28;18.30;76.40
15394;DHT22;7795;47.986;11.868;2023-05-10T08:40:55;18.40;75.80
15394;DHT22;7795;47.986;11.868;2023-05-10T08:43:27;18.40;75.60
15394;DHT22;7795;47.986;11.868;2023-05-10T08:45:54;18.50;75.40
15394;DHT22;7795;47.986;11.868;2023-05-10T08:48:23;18.50;75.60
15394;DHT22;7795;47.986;11.868;2023-05-10T08:50:49;18.50;75.60
15394;DHT22;7795;47.986;11.868;2023-05-10T08:53:19;18.60;75.60
15394;DHT22;7795;47.986;11.868;2023-05-10T08:55:47;18.70;75.30
15394;DHT22;7795;47.986;11.868;2023-05-10T08:58:12;18.80;75.00
15394;DHT22;7795;47.986;11.868;2023-05-10T09:00:39;18.80;74.80
15394;DHT22;7795;47.986;11.868;2023-05-10T09:03:05;18.90;74.40
15394;DHT22;7795;47.986;11.868;2023-05-10T09:05:31;18.90;73.80
15394;DHT22;7795;47.986;11.868;2023-05-10T09:07:57;19.00;73.70
15394;DHT22;7795;47.986;11.868;2023-05-10T09:10:25;19.00;73.70
15394;DHT22;7795;47.986;11.868;2023-05-10T09:12:56;19.10;73.80
15394;DHT22;7795;47.986;11.868;2023-05-10T09:15:22;19.10;73.70
15394;DHT22;7795;47.986;11.868;2023-05-10T09:17:57;19.10;73.70
15394;DHT22;7795;47.986;11.868;2023-05-10T09:20:24;19.20;73.50
15394;DHT22;7795;47.986;11.868;2023-05-10T09:22:50;19.30;73.50
15394;DHT22;7795;47.986;11.868;2023-05-10T09:25:16;19.30;73.00
15394;DHT22;7795;47.986;11.868;2023-05-10T09:27:45;19.40;73.00
15394;DHT22;7795;47.986;11.868;2023-05-10T09:30:16;19.40;72.80
15394;DHT22;7795;47.986;11.868;2023-05-10T09:32:43;19.40;72.50
15394;DHT22;7795;47.986;11.868;2023-05-10T09:35:10;19.40;72.50
15394;DHT22;7795;47.986;11.868;2023-05-10T09:37:36;19.40;72.40
15394;DHT22;7795;47.986;11.868;2023-05-10T09:40:08;19.40;72.40
15394;DHT22;7795;47.986;11.868;2023-05-10T09:42:36;19.40;72.40
15394;DHT22;7795;47.986;11.868;2023-05-10T09:45:03;19.30;72.40
15394;DHT22;7795;47.986;11.868;2023-05-10T09:47:33;19.30;72.70
15394;DHT22;7795;47.986;11.868;2023-05-10T09:49:59;19.20;72.50
15394;DHT22;7795;47.986;11.868;2023-05-10T09:52:29;19.20;72.50
15394;DHT22;7795;47.986;11.868;2023-05-10T09:54:55;19.10;72.50
15394;DHT22;7795;47.986;11.868;2023-05-10T09:57:22;19.00;72.80
15394;DHT22;7795;47.986;11.868;2023-05-10T09:59:48;19.00;73.30
15394;DHT22;7795;47.986;11.868;2023-05-10T10:02:14;18.90;73.50
15394;DHT22;7795;47.986;11.868;2023-05-10T10:04:42;18.90;73.70
15394;DHT22;7795;47.986;11.868;2023-05-10T10:07:08;18.80;73.70
15394;DHT22;7795;47.986;11.868;2023-05-10T10:09:34;18.80;73.80
15394;DHT22;7795;47.986;11.868;2023-05-10T10:12:01;18.80;73.70
15394;DHT22;7795;47.986;11.868;2023-05-10T10:14:27;18.80;73.80
15394;DHT22;7795;47.986;11.868;2023-05-10T10:16:54;18.80;73.80
15394;DHT22;7795;47.986;11.868;2023-05-10T10:19:20;18.80;73.80
15394;DHT22;7795;47.986;11.868;2023-05-10T10:21:49;18.80;74.00
15394;DHT22;7795;47.986;11.868;2023-05-10T10:24:36;18.80;73.80
15394;DHT22;7795;47.986;11.868;2023-05-10T10:27:09;18.90;73.70
15394;DHT22;7795;47.986;11.868;2023-05-10T10:29:41;18.90;73.80
15394;DHT22;7795;47.986;11.868;2023-05-10T10:32:24;18.90;73.80
15394;DHT22;7795;47.986;11.868;2023-05-10T10:34:59;18.90;73.60
15394;DHT22;7795;47.986;11.868;2023-05-10T10:37:42;18.90;73.50
15394;DHT22;7795;47.986;11.868;2023-05-10T10:40:23;18.90;73.20
15394;DHT22;7795;47.986;11.868;2023-05-10T10:42:50;18.90;74.30
15394;DHT22;7795;47.986;11.868;2023-05-10T10:45:16;18.90;73.70
15394;DHT22;7795;47.986;11.868;2023-05-10T10:47:42;19.00;74.10
15394;DHT22;7795;47.986;11.868;2023-05-10T10:50:09;19.00;73.70
15394;DHT22;7795;47.986;11.868;2023-05-10T10:52:37;19.10;73.70
15394;DHT22;7795;47.986;11.868;2023-05-10T10:55:06;19.10;73.90
15394;DHT22;7795;47.986;11.868;2023-05-10T10:57:48;19.20;74.00
15394;DHT22;7795;47.986;11.868;2023-05-10T11:00:23;19.30;74.00
15394;DHT22;7795;47.986;11.868;2023-05-10T11:02:51;19.30;73.80
15394;DHT22;7795;47.986;11.868;2023-05-10T11:08:13;19.50;74.10
15394;DHT22;7795;47.986;11.868;2023-05-10T11:10:49;19.60;73.90
15394;DHT22;7795;47.986;11.868;2023-05-10T11:13:15;19.60;73.60
15394;DHT22;7795;47.986;11.868;2023-05-10T11:15:48;19.60;73.30
15394;DHT22;7795;47.986;11.868;2023-05-10T11:18:18;19.70;73.00
15394;DHT22;7795;47.986;11.868;2023-05-10T11:20:44;19.70;72.90
15394;DHT22;7795;47.986;11.868;2023-05-10T11:23:15;19.70;72.90
15394;DHT22;7795;47.986;11.868;2023-05-10T11:25:47;19.70;73.00
15394;DHT22;7795;47.986;11.868;2023-05-10T11:28:21;19.70;73.00
15394;DHT22;7795;47.986;11.868;2023-05-10T11:30:47;19.70;72.60
15394;DHT22;7795;47.986;11.868;2023-05-10T11:33:17;19.60;72.80
15394;DHT22;7795;47.986;11.868;2023-05-10T11:35:43;19.60;73.00
15394;DHT22;7795;47.986;11.868;2023-05-10T11:38:10;19.50;72.90
15394;DHT22;7795;47.986;11.868;2023-05-10T11:40:37;19.50;73.00
15394;DHT22;7795;47.986;11.868;2023-05-10T11:43:05;19.40;73.20
15394;DHT22;7795;47.986;11.868;2023-05-10T11:45:34;19.40;73.30
15394;DHT22;7795;47.986;11.868;2023-05-10T11:48:00;19.30;73.30
15394;DHT22;7795;47.986;11.868;2023-05-10T11:50:26;19.30;73.10
15394;DHT22;7795;47.986;11.868;2023-05-10T11:52:53;19.20;72.70
15394;DHT22;7795;47.986;11.868;2023-05-10T11:55:19;19.10;72.60
15394;DHT22;7795;47.986;11.868;2023-05-10T11:57:45;19.00;73.00
15394;DHT22;7795;47.986;11.868;2023-05-10T12:00:13;18.90;73.40
15394;DHT22;7795;47.986;11.868;2023-05-10T12:02:40;18.90;73.80
15394;DHT22;7795;47.986;11.868;2023-05-10T12:05:06;18.90;73.60
15394;DHT22;7795;47.986;11.868;2023-05-10T12:07:32;18.80;73.50
15394;DHT22;7795;47.986;11.868;2023-05-10T12:10:09;18.70;73.70
15394;DHT22;7795;47.986;11.868;2023-05-10T12:12:37;18.60;73.40
15394;DHT22;7795;47.986;11.868;2023-05-10T12:15:04;18.50;73.30
15394;DHT22;7795;47.986;11.868;2023-05-10T12:17:32;18.40;73.10
15394;DHT22;7795;47.986;11.868;2023-05-10T12:19:59;18.30;72.90
15394;DHT22;7795;47.986;11.868;2023-05-10T12:22:38;18.20;72.80
15394;DHT22;7795;47.986;11.868;2023-05-10T12:25:04;18.00;72.90
15394;DHT22;7795;47.986;11.868;2023-05-10T12:27:31;18.00;73.00
15394;DHT22;7795;47.986;11.868;2023-05-10T12:29:59;17.90;73.10
15394;DHT22;7795;47.986;11.868;2023-05-10T12:32:39;17.80;73.30
15394;DHT22;7795;47.986;11.868;2023-05-10T12:35:06;17.70;74.00
15394;DHT22;7795;47.986;11.868;2023-05-10T12:37:32;17.60;73.80
15394;DHT22;7795;47.986;11.868;2023-05-10T12:40:07;17.50;73.90
15394;DHT22;7795;47.986;11.868;2023-05-10T12:42:47;17.40;74.20
15394;DHT22;7795;47.986;11.868;2023-05-10T12:45:14;17.30;74.30
15394;DHT22;7795;47.986;11.868;2023-05-10T12:47:41;17.20;74.60
15394;DHT22;7795;47.986;11.868;2023-05-10T12:50:09;17.10;74.80
15394;DHT22;7795;47.986;11.868;2023-05-10T12:52:35;17.00;75.10
15394;DHT22;7795;47.986;11.868;2023-05-10T12:55:01;17.00;75.20
15394;DHT22;7795;47.986;11.868;2023-05-10T12:57:28;16.90;75.50
15394;DHT22;7795;47.986;11.868;2023-05-10T12:59:55;16.90;75.90
15394;DHT22;7795;47.986;11.868;2023-05-10T13:02:21;16.80;76.10
15394;DHT22;7795;47.986;11.868;2023-05-10T13:04:50;16.80;76.20
15394;DHT22;7795;47.986;11.868;2023-05-10T13:07:15;16.70;76.50
15394;DHT22;7795;47.986;11.868;2023-05-10T13:09:41;16.70;76.40
15394;DHT22;7795;47.986;11.868;2023-05-10T13:12:07;16.60;76.50
15394;DHT22;7795;47.986;11.868;2023-05-10T13:14:33;16.60;76.80
15394;DHT22;7795;47.986;11.868;2023-05-10T13:16:59;16.60;77.10
15394;DHT22;7795;47.986;11.868;2023-05-10T13:19:28;16.60;77.10
15394;DHT22;7795;47.986;11.868;2023-05-10T13:21:56;16.60;77.10
15394;DHT22;7795;47.986;11.868;2023-05-10T13:24:22;16.60;77.10
15394;DHT22;7795;47.986;11.868;2023-05-10T13:26:48;16.60;77.20
15394;DHT22;7795;47.986;11.868;2023-05-10T13:29:14;16.60;77.20
15394;DHT22;7795;47.986;11.868;2023-05-10T13:31:42;16.60;77.50
15394;DHT22;7795;47.986;11.868;2023-05-10T13:34:08;16.60;77.50
15394;DHT22;7795;47.986;11.868;2023-05-10T13:36:34;16.60;77.70
15394;DHT22;7795;47.986;11.868;2023-05-10T13:39:06;16.70;77.90
15394;DHT22;7795;47.986;11.868;2023-05-10T13:41:38;16.70;78.20
15394;DHT22;7795;47.986;11.868;2023-05-10T13:44:04;16.70;78.70
15394;DHT22;7795;47.986;11.868;2023-05-10T13:46:30;16.70;77.70
15394;DHT22;7795;47.986;11.868;2023-05-10T13:48:56;16.80;77.60
15394;DHT22;7795;47.986;11.868;2023-05-10T13:51:22;16.80;77.50
15394;DHT22;7795;47.986;11.868;2023-05-10T13:53:48;16.80;77.60
15394;DHT22;7795;47.986;11.868;2023-05-10T13:56:15;16.80;77.60
15394;DHT22;7795;47.986;11.868;2023-05-10T13:58:45;16.80;77.60
15394;DHT22;7795;47.986;11.868;2023-05-10T14:01:11;16.80;77.70
15394;DHT22;7795;47.986;11.868;2023-05-10T14:03:37;16.80;77.80
15394;DHT22;7795;47.986;11.868;2023-05-10T14:06:03;16.80;77.80
15394;DHT22;7795;47.986;11.868;2023-05-10T14:08:29;16.80;78.00
15394;DHT22;7795;47.986;11.868;2023-05-10T14:10:55;16.80;78.10
15394;DHT22;7795;47.986;11.868;2023-05-10T14:13:23;16.90;78.20
15394;DHT22;7795;47.986;11.868;2023-05-10T14:15:50;16.90;78.30
15394;DHT22;7795;47.986;11.868;2023-05-10T14:18:16;16.90;78.10
15394;DHT22;7795;47.986;11.868;2023-05-10T14:20:42;16.90;78.00
15394;DHT22;7795;47.986;11.868;2023-05-10T14:23:08;17.00;78.00
15394;DHT22;7795;47.986;11.868;2023-05-10T14:25:34;16.90;77.90
15394;DHT22;7795;47.986;11.868;2023-05-10T14:28:00;17.00;77.90
15394;DHT22;7795;47.986;11.868;2023-05-10T14:30:28;17.00;77.90
15394;DHT22;7795;47.986;11.868;2023-05-10T14:32:55;17.00;78.10
15394;DHT22;7795;47.986;11.868;2023-05-10T14:35:23;17.00;77.90
15394;DHT22;7795;47.986;11.868;2023-05-10T14:37:49;17.00;77.60
15394;DHT22;7795;47.986;11.868;2023-05-10T14:40:15;17.00;77.40
15394;DHT22;7795;47.986;11.868;2023-05-10T14:42:42;17.00;77.40
15394;DHT22;7795;47.986;11.868;2023-05-10T14:45:09;17.10;77.60
15394;DHT22;7795;47.986;11.868;2023-05-10T14:47:37;17.10;77.80
15394;DHT22;7795;47.986;11.868;2023-05-10T14:50:03;17.10;77.50
15394;DHT22;7795;47.986;11.868;2023-05-10T14:52:29;17.10;77.20
15394;DHT22;7795;47.986;11.868;2023-05-10T14:54:55;17.10;76.80
15394;DHT22;7795;47.986;11.868;2023-05-10T14:57:21;17.10;76.60
15394;DHT22;7795;47.986;11.868;2023-05-10T14:59:47;17.10;76.70
15394;DHT22;7795;47.986;11.868;2023-05-10T15:02:13;17.10;76.80
15394;DHT22;7795;47.986;11.868;2023-05-10T15:04:40;17.10;76.60
15394;DHT22;7795;47.986;11.868;2023-05-10T15:07:06;17.10;76.70
15394;DHT22;7795;47.986;11.868;2023-05-10T15:09:32;17.00;76.80
15394;DHT22;7795;47.986;11.868;2023-05-10T15:11:58;17.00;76.90
15394;DHT22;7795;47.986;11.868;2023-05-10T15:14:24;17.00;76.90
15394;DHT22;7795;47.986;11.868;2023-05-10T15:16:49;17.00;76.90
15394;DHT22;7795;47.986;11.868;2023-05-10T15:19:15;17.00;77.20
15394;DHT22;7795;47.986;11.868;2023-05-10T15:21:42;16.90;77.40
15394;DHT22;7795;47.986;11.868;2023-05-10T15:24:10;16.90;77.20
15394;DHT22;7795;47.986;11.868;2023-05-10T15:26:35;16.90;77.10
15394;DHT22;7795;47.986;11.868;2023-05-10T15:29:01;16.90;77.10
15394;DHT22;7795;47.986;11.868;2023-05-10T15:31:27;16.90;77.40
15394;DHT22;7795;47.986;11.868;2023-05-10T15:33:57;16.80;77.40
15394;DHT22;7795;47.986;11.868;2023-05-10T15:36:39;16.80;77.60
15394;DHT22;7795;47.986;11.868;2023-05-10T15:39:06;16.80;77.50
15394;DHT22;7795;47.986;11.868;2023-05-10T15:41:32;16.80;77.50
15394;DHT22;7795;47.986;11.868;2023-05-10T15:43:58;16.80;77.40